Time;durP1;ratioP1;P1;durP2;ratioP2;P2;SDS_P1;SDS_P2;PMS_P1;PMS_P2;Temp;Humidity;BMP_temperature;BMP_pressure;BME280_temperature;BME280_humidity;BME280_pressure;Samples;Min_cycle;Max_cycle;Signal;HPM_P1;HPM_P2
2024/04/15 00:00:22;;;;;;;;;14.50;13.25;;;;;16.61;57.06;101226.34;146602;617;46021;-66
2024/04/15 00:03:25;;;;;;;;;16.25;14.75;;;;;17.98;57.76;101464.28;146603;675;47012;-70
2024/04/15 00:06:43;;;;;;;;;20.00;18.25;;;;;17.97;58.06;101459.84;146607;627;46021;-71
2024/04/15 00:09:45;;;;;;;;;17.50;16.00;;;;;17.90;59.55;101452.62;146595;569;49913;-69
2024/04/15 00:12:50;;;;;;;;;18.00;17.00;;;;;17.82;59.88;101452.41;146607;599;46021;-68
2024/04/15 00:16:19;;;;;;;;;17.50;17.50;;;;;16.45;57.94;101230.97;146602;664;47010;-68
2024/04/15 00:19:26;;;;;;;;;23.75;18.50;;;;;17.68;59.46;101448.38;146607;563;46008;-68
2024/04/15 00:22:30;;;;;;;;;15.25;14.75;;;;;17.63;58.99;101449.94;146601;592;46910;-69
2024/04/15 00:25:25;;;;;;;;;18.00;16.00;;;;;17.59;59.67;101443.69;146605;607;46020;-68
2024/04/15 00:28:23;;;;;;;;;17.00;14.00;;;;;17.58;59.37;101454.16;146602;569;46017;-70
2024/04/15 00:31:18;;;;;;;;;16.00;15.00;;;;;17.55;59.90;101439.19;146601;579;47008;-69
2024/04/15 00:34:20;;;;;;;;;16.50;15.25;;;;;17.56;59.15;101443.59;146599;563;47010;-68
2024/04/15 00:37:28;;;;;;;;;17.75;14.00;;;;;17.60;59.15;101444.59;146607;665;47008;-69
2024/04/15 00:40:30;;;;;;;;;15.00;13.00;;;;;17.69;58.33;101445.78;146603;593;46016;-71
2024/04/15 00:43:26;;;;;;;;;15.75;14.00;;;;;17.75;58.64;101438.13;146603;641;47008;-72
2024/04/15 00:46:52;;;;;;;;;12.25;11.25;;;;;16.47;56.89;101205.75;146603;674;46016;-71
2024/04/15 00:49:53;;;;;;;;;13.75;13.75;;;;;17.77;57.72;101426.00;146604;630;47008;-70
2024/04/15 00:53:14;;;;;;;;;;;;;;;;;;;;;
2024/04/15 00:56:22;;;;;;;;;17.00;14.75;;;;;17.76;56.56;101418.94;146610;576;46020;-70
2024/04/15 00:59:27;;;;;;;;;13.00;12.00;;;;;17.70;56.94;101415.22;146602;575;47011;-68
2024/04/15 01:02:20;;;;;;;;;13.75;13.00;;;;;17.69;57.73;101410.81;146602;577;47010;-67
2024/04/15 01:05:34;;;;;;;;;14.00;13.75;;;;;17.71;57.33;101415.28;146603;595;46031;-68
2024/04/15 01:08:48;;;;;;;;;;;;;;;;;;;;;
2024/04/15 01:11:44;;;;;;;;;17.25;15.50;;;;;17.66;58.22;101411.62;146602;658;47011;-68
2024/04/15 01:14:57;;;;;;;;;16.50;16.25;;;;;17.58;57.92;101410.47;146603;613;47008;-69
2024/04/15 01:17:54;;;;;;;;;14.00;11.75;;;;;17.49;58.70;101412.78;146601;684;47010;-70
2024/04/15 01:20:51;;;;;;;;;16.50;14.75;;;;;17.44;58.61;101411.72;146606;571;46020;-70
2024/04/15 01:23:53;;;;;;;;;15.75;14.00;;;;;17.41;57.55;101425.59;146601;666;47010;-71
2024/04/15 01:26:50;;;;;;;;;17.25;17.00;;;;;17.35;57.82;101428.00;146606;676;47008;-70
2024/04/15 01:29:42;;;;;;;;;12.00;12.00;;;;;17.30;58.58;101429.59;146604;599;46016;-70
2024/04/15 01:32:46;;;;;;;;;;;;;;;;;;;;;
2024/04/15 01:35:44;;;;;;;;;16.75;15.50;;;;;17.05;59.75;101433.06;146600;607;47011;-71
2024/04/15 01:38:57;;;;;;;;;14.75;14.75;;;;;16.92;59.62;101433.47;146607;575;46020;-70
2024/04/15 01:41:53;;;;;;;;;16.00;16.00;;;;;16.80;60.29;101426.06;146603;596;47017;-68
2024/04/15 01:44:55;;;;;;;;;15.00;14.00;;;;;16.78;60.50;101430.31;146605;630;47010;-67
2024/04/15 01:47:51;;;;;;;;;16.00;13.75;;;;;16.79;60.65;101424.25;146599;706;47010;-67
2024/04/15 01:50:49;;;;;;;;;17.75;16.00;;;;;16.78;60.56;101414.62;146605;673;46021;-67
2024/04/15 01:53:44;;;;;;;;;14.50;13.75;;;;;16.75;60.43;101409.22;146598;578;47012;-67
2024/04/15 01:56:41;;;;;;;;;17.25;15.00;;;;;16.77;60.73;101412.84;146606;570;46021;-67
2024/04/15 01:59:34;;;;;;;;;18.00;16.00;;;;;16.81;60.63;101405.12;146601;586;46010;-66
2024/04/15 02:02:54;;;;;;;;;17.25;15.50;;;;;15.76;58.98;101204.91;146602;580;46020;-67
2024/04/15 02:05:49;;;;;;;;;18.25;16.25;;;;;16.92;60.78;101404.66;146602;624;47010;-68
2024/04/15 02:09:07;;;;;;;;;18.25;15.00;;;;;16.90;61.09;101409.81;146599;598;47008;-69
2024/04/15 02:12:11;;;;;;;;;21.50;19.25;;;;;16.84;62.19;101409.59;146601;584;47010;-66
2024/04/15 02:15:08;;;;;;;;;19.75;18.00;;;;;16.81;64.52;101401.62;146608;593;46008;-67
2024/04/15 02:18:21;;;;;;;;;17.50;17.50;;;;;16.84;63.25;101409.59;146602;564;47013;-68
2024/04/15 02:21:25;;;;;;;;;18.75;18.25;;;;;16.90;66.25;101403.69;146608;574;46021;-67
2024/04/15 02:24:28;;;;;;;;;17.00;16.25;;;;;16.96;65.27;101399.56;146601;626;47010;-67
2024/04/15 02:27:33;;;;;;;;;19.25;17.50;;;;;17.04;65.14;101395.50;146606;578;47008;-67
2024/04/15 02:30:29;;;;;;;;;17.25;15.00;;;;;17.10;64.90;101394.81;146605;635;46915;-66
2024/04/15 02:33:38;;;;;;;;;19.75;17.00;;;;;17.17;64.52;101395.94;146629;570;45020;-68
2024/04/15 02:36:51;;;;;;;;;17.00;15.00;;;;;17.23;64.20;101396.16;146628;594;45017;-67
2024/04/15 02:39:58;;;;;;;;;22.00;18.25;;;;;17.21;63.27;101393.47;146637;596;45008;-66
2024/04/15 02:42:50;;;;;;;;;14.00;14.00;;;;;17.17;62.69;101394.22;146629;570;45912;-66
2024/04/15 02:46:18;;;;;;;;;;;;;;;;;;;;;
2024/04/15 02:49:24;;;;;;;;;17.50;15.25;;;;;17.03;62.34;101380.59;146627;599;46032;-66
2024/04/15 02:52:31;;;;;;;;;18.00;15.50;;;;;16.98;61.65;101378.69;146635;579;46008;-67
2024/04/15 02:55:47;;;;;;;;;13.00;13.00;;;;;16.90;61.45;101382.75;146633;625;45911;-69
2024/04/15 02:58:54;;;;;;;;;15.00;14.00;;;;;16.78;61.92;101378.84;146628;578;46008;-67
2024/04/15 03:02:05;;;;;;;;;16.50;15.75;;;;;16.67;60.15;101374.91;146632;606;45911;-72
2024/04/15 03:05:25;;;;;;;;;16.50;14.50;;;;;16.60;60.99;101376.44;146623;628;45021;-71
2024/04/15 03:08:29;;;;;;;;;18.00;16.00;;;;;16.58;61.63;101379.81;146630;583;45911;-72
2024/04/15 03:11:28;;;;;;;;;18.50;15.75;;;;;16.55;62.57;101384.94;146633;568;45027;-71
2024/04/15 03:14:42;;;;;;;;;;;;;;;;;;;;;
2024/04/15 03:17:53;;;;;;;;;7.25;7.00;;;;;16.33;63.18;101378.88;146632;604;45021;-71
2024/04/15 03:20:56;;;;;;;;;15.25;14.25;;;;;16.26;62.82;101381.19;146631;650;46010;-72
2024/04/15 03:23:59;;;;;;;;;15.25;14.25;;;;;16.19;62.50;101372.22;146634;600;46008;-71
2024/04/15 03:27:05;;;;;;;;;16.50;15.00;;;;;16.16;63.19;101366.88;146634;581;45910;-69
2024/04/15 03:30:13;;;;;;;;;14.75;13.00;;;;;16.14;63.73;101368.56;146634;684;46008;-69
2024/04/15 03:33:21;;;;;;;;;18.25;15.50;;;;;16.13;63.55;101371.97;146629;581;46910;-69
2024/04/15 03:36:16;;;;;;;;;16.25;15.00;;;;;16.09;63.62;101373.59;146628;566;45020;-72
2024/04/15 03:39:35;;;;;;;;;20.00;16.25;;;;;16.02;62.82;101378.53;146633;649;45915;-71
2024/04/15 03:42:39;;;;;;;;;17.75;15.75;;;;;15.94;63.52;101378.22;146626;570;47008;-68
2024/04/15 03:45:38;;;;;;;;;18.00;17.75;;;;;15.94;63.37;101389.56;146628;592;46010;-69
2024/04/15 03:48:35;;;;;;;;;15.75;14.75;;;;;15.97;63.37;101385.28;146634;612;45008;-69
2024/04/15 03:51:33;;;;;;;;;16.00;15.50;;;;;15.99;63.35;101395.00;146626;604;47016;-68
2024/04/15 03:54:45;;;;;;;;;17.50;17.25;;;;;16.00;63.29;101391.53;146631;673;46008;-68
2024/04/15 03:57:49;;;;;;;;;16.50;16.50;;;;;15.97;63.86;101390.53;146625;656;46010;-69
2024/04/15 04:00:53;;;;;;;;;17.25;14.25;;;;;15.92;63.13;101383.41;146633;571;46008;-69
2024/04/15 04:04:03;;;;;;;;;;;;;;;;;;;;;
2024/04/15 04:07:03;;;;;;;;;15.50;14.50;;;;;15.96;63.86;101384.41;146629;579;45020;-67
2024/04/15 04:10:31;;;;;;;;;16.50;15.50;;;;;16.00;62.43;101374.94;146632;564;45910;-67
2024/04/15 04:13:35;;;;;;;;;17.75;16.25;;;;;16.03;63.30;101385.53;146632;575;46008;-67
2024/04/15 04:16:27;;;;;;;;;17.50;17.50;;;;;16.07;65.78;101387.44;146629;619;46910;-66
2024/04/15 04:19:28;;;;;;;;;14.75;13.00;;;;;16.10;64.47;101387.56;146631;571;45020;-66
2024/04/15 04:22:35;;;;;;;;;20.50;18.00;;;;;16.15;64.37;101383.41;146630;578;46010;-66
2024/04/15 04:25:36;;;;;;;;;18.50;17.50;;;;;16.24;65.53;101381.16;146630;742;45026;-67
2024/04/15 04:28:31;;;;;;;;;20.75;17.00;;;;;16.34;64.98;101388.50;146631;573;45016;-67
2024/04/15 04:31:32;;;;;;;;;16.00;15.50;;;;;16.46;64.16;101398.56;146623;591;46008;-65
2024/04/15 04:34:57;;;;;;;;;21.50;18.50;;;;;15.25;62.54;101174.19;146603;595;46016;-69
2024/04/15 04:37:55;;;;;;;;;20.75;20.00;;;;;16.55;64.98;101400.66;146601;627;47020;-69
2024/04/15 04:41:05;;;;;;;;;19.00;16.75;;;;;16.67;68.66;101406.34;146600;588;47012;-70
2024/04/15 04:44:10;;;;;;;;;19.50;19.25;;;;;17.00;67.42;101396.22;146602;569;46008;-70
2024/04/15 04:47:14;;;;;;;;;22.00;20.75;;;;;17.40;65.17;101407.22;146601;620;46012;-65
2024/04/15 04:50:55;;;;;;;;;;;;;;;;;;;;;
2024/04/15 04:53:53;;;;;;;;;22.25;19.50;;;;;18.13;62.53;101416.63;146600;596;47010;-67
2024/04/15 04:56:52;;;;;;;;;21.25;20.75;;;;;18.33;63.08;101415.53;146606;564;47021;-66
2024/04/15 04:59:59;;;;;;;;;25.00;20.00;;;;;18.53;62.09;101425.72;146597;687;48010;-68
2024/04/15 05:03:00;;;;;;;;;20.75;19.75;;;;;18.73;60.95;101411.50;146607;595;47008;-69
2024/04/15 05:05:58;;;;;;;;;24.75;22.25;;;;;18.90;62.31;101412.84;146606;689;46016;-70
2024/04/15 05:09:07;;;;;;;;;23.50;20.25;;;;;19.09;60.59;101413.37;146599;588;47008;-68
2024/04/15 05:12:13;;;;;;;;;21.00;18.00;;;;;19.28;61.71;101413.03;146603;578;47016;-68
2024/04/15 05:15:20;;;;;;;;;20.50;20.00;;;;;19.51;59.76;101407.47;146604;580;47008;-68
2024/04/15 05:18:14;;;;;;;;;18.50;17.00;;;;;19.74;60.87;101393.19;146604;607;46016;-75
2024/04/15 05:21:23;;;;;;;;;18.00;17.00;;;;;20.02;59.08;101393.84;146605;581;46008;-65
2024/04/15 05:24:29;;;;;;;;;15.75;15.25;;;;;20.25;58.71;101386.47;146599;624;47011;-67
2024/04/15 05:27:26;;;;;;;;;20.50;19.50;;;;;20.45;58.60;101384.28;146604;617;47008;-66
2024/04/15 05:30:36;;;;;;;;;26.50;24.50;;;;;20.58;57.42;101388.97;146603;564;46016;-76
2024/04/15 05:33:39;;;;;;;;;22.50;21.25;;;;;20.76;57.33;101383.19;146628;644;46008;-82
2024/04/15 05:36:46;;;;;;;;;;;;;;;;;;;;;
2024/04/15 05:39:48;;;;;;;;;29.50;28.25;;;;;20.64;54.88;101299.50;146628;572;45912;-82
2024/04/15 05:42:50;;;;;;;;;30.00;25.50;;;;;21.39;54.70;101392.31;146630;564;45910;-78
2024/04/15 05:46:04;;;;;;;;;24.25;20.25;;;;;21.54;54.08;101386.41;146631;611;45021;-76
2024/04/15 05:49:09;;;;;;;;;23.75;23.25;;;;;21.67;53.44;101381.34;146625;566;45016;-78
2024/04/15 05:52:08;;;;;;;;;24.50;21.50;;;;;21.77;54.47;101377.09;146627;599;46021;-79
2024/04/15 05:55:12;;;;;;;;;23.50;19.75;;;;;21.89;53.86;101372.03;146626;654;46010;-81
2024/04/15 05:58:19;;;;;;;;;21.75;21.50;;;;;21.27;53.55;101234.69;146632;709;46008;-80
2024/04/15 06:01:25;;;;;;;;;26.00;21.25;;;;;22.22;54.61;101376.06;146629;600;46010;-79
2024/04/15 06:04:20;;;;;;;;;22.00;21.75;;;;;22.39;54.86;101365.72;146630;643;46020;-78
2024/04/15 06:07:34;;;;;;;;;21.50;20.50;;;;;21.66;53.30;101212.44;146627;583;46017;-80
2024/04/15 06:10:33;;;;;;;;;22.00;20.50;;;;;22.68;53.02;101366.09;146629;672;45020;-80
2024/04/15 06:13:30;;;;;;;;;22.75;20.75;;;;;22.80;53.76;101368.87;146631;595;45913;-81
2024/04/15 06:16:34;;;;;;;;;21.25;19.50;;;;;22.97;54.11;101371.72;146630;639;45021;-81
2024/04/15 06:19:28;;;;;;;;;21.25;18.50;;;;;23.15;52.84;101371.03;146625;602;46016;-84
2024/04/15 06:22:32;;;;;;;;;20.00;19.00;;;;;23.31;53.59;101382.66;146633;588;45020;-88
2024/04/15 06:25:41;;;;;;;;;;;;;;;;;;;;;
2024/04/15 06:28:42;;;;;;;;;21.75;21.00;;;;;23.65;51.38;101372.34;146625;625;45020;-77
2024/04/15 06:31:58;;;;;;;;;23.75;22.75;;;;;23.79;50.64;101373.38;146612;598;47012;-73
2024/04/15 06:35:26;;;;;;;;;23.25;22.50;;;;;22.84;50.99;101195.28;146605;600;47008;-78
2024/04/15 06:38:23;;;;;;;;;20.50;19.50;;;;;23.97;50.93;101377.91;146598;666;47010;-71
2024/04/15 06:41:21;;;;;;;;;20.25;18.25;;;;;24.05;50.50;101372.66;146597;646;48008;-70
2024/04/15 06:44:25;;;;;;;;;20.75;19.50;;;;;23.04;50.19;101185.75;146603;573;46010;-67
2024/04/15 06:47:27;;;;;;;;;23.50;21.00;;;;;24.25;50.33;101386.91;146603;643;47008;-69
2024/04/15 06:50:25;;;;;;;;;21.50;21.50;;;;;24.27;50.29;101392.19;146603;599;46016;-68
2024/04/15 06:53:18;;;;;;;;;21.00;20.00;;;;;24.28;49.73;101394.88;146601;617;47008;-68
2024/04/15 06:56:15;;;;;;;;;21.00;18.00;;;;;24.28;50.34;101392.22;146601;573;47010;-71
2024/04/15 06:59:18;;;;;;;;;21.75;19.00;;;;;24.35;50.09;101387.84;146608;591;46020;-71
2024/04/15 07:02:20;;;;;;;;;19.50;19.50;;;;;24.49;50.03;101387.97;146603;565;47016;-69
2024/04/15 07:05:14;;;;;;;;;22.25;20.75;;;;;24.63;49.62;101384.47;146604;596;47010;-71
2024/04/15 07:08:22;;;;;;;;;23.75;21.50;;;;;24.80;50.33;101387.19;146603;736;46017;-70
2024/04/15 07:11:26;;;;;;;;;21.75;20.00;;;;;24.93;49.21;101374.84;146599;569;48008;-70
2024/04/15 07:14:30;;;;;;;;;22.25;19.50;;;;;25.00;49.05;101373.97;146599;578;47011;-70
2024/04/15 07:17:22;;;;;;;;;22.00;20.00;;;;;25.05;48.74;101368.69;146605;576;47008;-70
2024/04/15 07:20:22;;;;;;;;;24.00;21.50;;;;;25.10;47.94;101369.56;146601;579;47010;-69
2024/04/15 07:23:22;;;;;;;;;21.75;20.00;;;;;25.11;48.60;101358.97;146608;586;46030;-70
2024/04/15 07:26:16;;;;;;;;;20.25;20.25;;;;;25.13;49.77;101356.34;146599;599;47010;-70
2024/04/15 07:29:37;;;;;;;;;21.75;19.75;;;;;24.03;49.96;101158.06;146607;615;46023;-70
2024/04/15 07:32:45;;;;;;;;;22.75;21.00;;;;;25.18;49.51;101353.69;146599;609;47010;-70
2024/04/15 07:36:02;;;;;;;;;21.50;21.25;;;;;25.18;50.58;101356.34;146606;606;46020;-70
2024/04/15 07:39:21;;;;;;;;;21.25;20.50;;;;;25.22;51.89;101358.13;146602;589;46016;-70
2024/04/15 07:42:41;;;;;;;;;;;;;;;;;;;;;
2024/04/15 07:45:41;;;;;;;;;22.75;20.00;;;;;25.32;49.94;101368.72;146601;570;46017;-69
2024/04/15 07:48:36;;;;;;;;;22.50;21.75;;;;;25.31;50.63;101372.28;146603;588;47008;-72
2024/04/15 07:51:56;;;;;;;;;;;;;;;;;;;;;
2024/04/15 07:54:57;;;;;;;;;21.75;21.25;;;;;25.28;51.32;101380.25;146603;583;46020;-72
2024/04/15 07:57:53;;;;;;;;;20.00;18.75;;;;;25.38;51.22;101375.81;146603;571;47012;-72
2024/04/15 08:00:53;;;;;;;;;28.50;25.75;;;;;25.50;49.65;101380.25;146604;602;46008;-77
2024/04/15 08:04:01;;;;;;;;;30.00;28.00;;;;;25.55;49.33;101384.69;146596;565;48915;-75
2024/04/15 08:07:11;;;;;;;;;36.25;30.25;;;;;25.51;50.28;101382.94;146609;588;46008;-76
2024/04/15 08:10:15;;;;;;;;;31.50;29.00;;;;;25.38;49.16;101377.59;146602;661;47010;-75
2024/04/15 08:13:25;;;;;;;;;32.50;28.75;;;;;24.19;50.00;101196.09;146597;637;47008;-76
2024/04/15 08:16:26;;;;;;;;;26.50;24.75;;;;;25.16;50.23;101374.91;146602;586;46016;-76
2024/04/15 08:19:25;;;;;;;;;29.50;26.75;;;;;25.23;50.37;101373.16;146606;593;47008;-76
2024/04/15 08:22:34;;;;;;;;;23.25;22.50;;;;;25.34;48.88;101374.94;146598;631;48011;-78
2024/04/15 08:25:33;;;;;;;;;22.00;20.00;;;;;25.55;47.71;101373.19;146604;598;47010;-74
2024/04/15 08:28:30;;;;;;;;;19.25;17.25;;;;;25.87;46.70;101377.62;146604;570;46016;-72
2024/04/15 08:31:37;;;;;;;;;22.75;18.25;;;;;26.16;43.76;101375.78;146606;597;47008;-72
2024/04/15 08:34:42;;;;;;;;;19.00;17.50;;;;;26.32;45.26;101370.41;146602;708;46910;-70
2024/04/15 08:38:06;;;;;;;;;25.25;23.50;;;;;26.36;45.71;101365.09;146606;569;47008;-70
2024/04/15 08:41:26;;;;;;;;;24.75;24.50;;;;;25.14;45.50;101193.59;146598;599;47010;-71
2024/04/15 08:44:42;;;;;;;;;19.75;19.75;;;;;26.03;45.18;101377.56;146601;659;46008;-71
2024/04/15 08:47:57;;;;;;;;;19.50;18.50;;;;;25.93;41.30;101370.53;146601;646;47016;-73
2024/04/15 08:51:05;;;;;;;;;19.75;17.75;;;;;25.82;42.41;101360.78;146604;586;47009;-71
2024/04/15 08:54:21;;;;;;;;;18.00;16.75;;;;;25.86;43.52;101355.50;146600;633;47010;-72
2024/04/15 08:57:27;;;;;;;;;23.00;21.50;;;;;26.00;45.05;101350.12;146606;595;47008;-69
2024/04/15 09:00:24;;;;;;;;;23.25;20.75;;;;;26.24;46.08;101342.09;146604;585;47017;-71
2024/04/15 09:03:28;;;;;;;;;26.25;25.00;;;;;26.52;45.37;101339.34;146607;602;46020;-70
2024/04/15 09:06:35;;;;;;;;;22.00;19.50;;;;;26.79;44.98;101335.66;146604;627;46016;-70
2024/04/15 09:09:43;;;;;;;;;24.25;22.25;;;;;26.12;44.15;101171.16;146603;576;47020;-74
2024/04/15 09:12:50;;;;;;;;;22.00;20.75;;;;;27.25;44.45;101329.16;146600;690;47010;-71
2024/04/15 09:16:01;;;;;;;;;22.75;21.25;;;;;27.42;43.35;101324.59;146601;573;46021;-72
2024/04/15 09:19:08;;;;;;;;;21.00;20.00;;;;;27.62;43.62;101321.72;146604;619;46016;-72
2024/04/15 09:22:07;;;;;;;;;21.50;21.50;;;;;27.64;42.68;101319.94;146610;564;46021;-70
2024/04/15 09:25:05;;;;;;;;;21.00;20.75;;;;;27.67;40.96;101314.59;146604;582;46016;-72
2024/04/15 09:28:09;;;;;;;;;25.25;25.25;;;;;27.75;43.26;101322.47;146601;594;48008;-70
2024/04/15 09:31:09;;;;;;;;;18.75;18.25;;;;;27.87;42.34;101315.28;146599;624;47010;-69
2024/04/15 09:34:04;;;;;;;;;20.00;19.50;;;;;27.99;41.62;101310.72;146608;592;46008;-67
2024/04/15 09:37:12;;;;;;;;;21.50;21.50;;;;;28.20;41.29;101315.78;146601;577;47017;-70
2024/04/15 09:40:16;;;;;;;;;23.25;22.25;;;;;28.37;40.91;101314.69;146604;620;47008;-71
2024/04/15 09:43:40;;;;;;;;;19.25;18.75;;;;;27.46;39.97;101139.88;146602;617;46017;-72
2024/04/15 09:46:57;;;;;;;;;18.75;17.00;;;;;28.40;38.33;101302.22;146602;647;46008;-71
2024/04/15 09:49:53;;;;;;;;;16.50;15.50;;;;;28.42;37.67;101300.44;146602;631;47012;-71
2024/04/15 09:52:48;;;;;;;;;15.75;14.75;;;;;28.38;38.72;101300.44;146604;694;47008;-71
2024/04/15 09:56:04;;;;;;;;;16.25;15.00;;;;;28.07;40.83;101243.09;146602;634;46016;-68
2024/04/15 09:59:19;;;;;;;;;16.25;15.00;;;;;28.30;41.13;101282.78;146604;578;47008;-70
2024/04/15 10:02:57;;;;;;;;;16.00;15.00;;;;;28.38;41.63;101273.78;146602;669;46911;-69
2024/04/15 10:05:54;;;;;;;;;17.25;15.00;;;;;28.38;38.28;101266.69;146609;597;46021;-70
2024/04/15 10:09:24;;;;;;;;;17.25;16.50;;;;;28.33;37.75;101265.84;146600;626;47010;-69
2024/04/15 10:12:28;;;;;;;;;17.50;15.00;;;;;27.28;40.33;101078.84;146605;622;47008;-70
2024/04/15 10:15:33;;;;;;;;;16.75;16.75;;;;;28.33;37.28;101250.72;146602;624;46913;-73
2024/04/15 10:18:25;;;;;;;;;22.00;17.75;;;;;28.42;38.19;101243.53;146600;590;47021;-72
2024/04/15 10:21:32;;;;;;;;;17.25;16.25;;;;;28.45;38.04;101239.03;146598;624;47010;-71
2024/04/15 10:24:32;;;;;;;;;18.75;18.00;;;;;28.31;37.74;101231.19;146603;563;47008;-73
2024/04/15 10:27:47;;;;;;;;;17.50;16.00;;;;;27.15;38.08;101047.06;146604;564;46016;-74
2024/04/15 10:30:57;;;;;;;;;17.25;16.00;;;;;28.18;39.08;101221.59;146599;627;47008;-70
2024/04/15 10:33:58;;;;;;;;;21.75;17.25;;;;;28.24;36.16;101217.97;146601;703;46914;-72
2024/04/15 10:37:05;;;;;;;;;18.50;16.50;;;;;28.36;37.59;101220.47;146609;602;46020;-71
2024/04/15 10:40:07;;;;;;;;;19.50;19.00;;;;;28.48;38.50;101217.66;146603;636;47016;-71
2024/04/15 10:43:26;;;;;;;;;23.25;21.00;;;;;28.58;39.13;101204.19;146606;595;46021;-72
2024/04/15 10:46:31;;;;;;;;;19.50;16.75;;;;;28.70;36.37;101204.84;146604;653;47016;-74
2024/04/15 10:49:46;;;;;;;;;17.50;17.50;;;;;27.71;40.19;101017.03;146599;615;47046;-67
2024/04/15 10:52:52;;;;;;;;;15.00;14.25;;;;;28.88;37.90;101210.78;146605;579;46016;-70
2024/04/15 10:56:15;;;;;;;;;18.25;16.50;;;;;27.54;37.20;100959.56;146605;666;46009;-74
2024/04/15 10:59:19;;;;;;;;;19.00;16.00;;;;;28.99;39.69;101200.81;146605;602;46016;-69
2024/04/15 11:02:15;;;;;;;;;19.25;19.00;;;;;29.05;37.66;101186.53;146606;580;46020;-70
2024/04/15 11:05:26;;;;;;;;;14.25;12.75;;;;;29.10;39.03;101177.53;146606;658;47010;-71
2024/04/15 11:08:30;;;;;;;;;20.25;18.50;;;;;29.19;36.63;101181.78;146597;653;48010;-74
2024/04/15 11:11:39;;;;;;;;;16.00;16.00;;;;;28.19;36.88;100983.38;146597;665;46914;-70
2024/04/15 11:14:43;;;;;;;;;19.00;17.00;;;;;29.14;34.98;101167.66;146598;650;47008;-79
2024/04/15 11:17:41;;;;;;;;;19.00;18.00;;;;;29.13;37.04;101165.87;146594;708;47013;-73
2024/04/15 11:20:37;;;;;;;;;17.75;16.50;;;;;29.18;35.96;101158.69;146596;594;46020;-70
2024/04/15 11:23:42;;;;;;;;;16.25;15.25;;;;;29.38;37.82;101153.84;146593;593;47010;-71
2024/04/15 11:26:58;;;;;;;;;18.00;16.25;;;;;29.57;39.08;101154.34;146599;599;47008;-70
2024/04/15 11:29:57;;;;;;;;;13.75;13.75;;;;;29.67;34.22;101142.56;146596;569;46016;-72
2024/04/15 11:33:09;;;;;;;;;15.00;14.33;;;;;28.52;34.30;100968.59;146596;571;47008;-73
2024/04/15 11:36:23;;;;;;;;;19.50;16.00;;;;;29.41;35.18;101132.41;146597;736;47010;-71
2024/04/15 11:39:24;;;;;;;;;14.50;13.25;;;;;29.56;35.89;101125.84;146596;719;47008;-72
2024/04/15 11:42:27;;;;;;;;;16.00;13.67;;;;;29.81;34.39;101123.56;146595;581;48010;-70
2024/04/15 11:45:57;;;;;;;;;15.50;14.50;;;;;28.95;37.31;100930.38;146597;586;47020;-70
2024/04/15 11:49:10;;;;;;;;;15.33;13.33;;;;;30.15;35.43;101109.41;146600;647;46017;-72
2024/04/15 11:52:25;;;;;;;;;16.00;14.00;;;;;30.21;34.16;101103.94;146598;654;46020;-71
2024/04/15 11:55:35;;;;;;;;;16.25;14.25;;;;;30.34;36.38;101094.75;146594;653;46017;-71
2024/04/15 11:58:39;;;;;;;;;13.75;13.00;;;;;30.40;35.20;101087.44;146598;604;47008;-70
2024/04/15 12:01:39;;;;;;;;;12.33;12.33;;;;;30.44;32.35;101083.78;146596;614;47010;-69
2024/04/15 12:04:53;;;;;;;;;;;;;;;;;;;;;
2024/04/15 12:07:52;;;;;;;;;12.67;12.67;;;;;30.36;32.44;101071.47;146596;580;46016;-69
2024/04/15 12:11:08;;;;;;;;;13.50;12.50;;;;;30.29;34.96;101061.88;146597;569;47010;-69
2024/04/15 12:14:03;;;;;;;;;14.25;13.50;;;;;30.29;32.01;101051.16;146593;589;47010;-71
2024/04/15 12:16:58;;;;;;;;;15.33;14.67;;;;;30.25;33.96;101054.84;146601;605;46021;-70
2024/04/15 12:20:07;;;;;;;;;;;;;;;;;;;;;
2024/04/15 12:23:16;;;;;;;;;11.67;11.00;;;;;30.19;33.33;101043.34;146598;568;46008;-72
2024/04/15 12:26:33;;;;;;;;;15.00;14.00;;;;;30.17;34.56;101032.72;146595;688;46017;-71
2024/04/15 12:29:56;;;;;;;;;;;;;;;;;;;;;
2024/04/15 12:33:09;;;;;;;;;12.33;12.33;;;;;29.15;34.38;100851.66;146593;588;47010;-71
2024/04/15 12:36:11;;;;;;;;;14.00;12.67;;;;;30.12;31.87;101016.75;146598;669;47020;-71
2024/04/15 12:39:16;;;;;;;;;12.33;12.33;;;;;30.12;34.43;101010.53;146597;598;46913;-69
2024/04/15 12:42:22;;;;;;;;;12.75;12.25;;;;;30.13;34.28;100998.94;146599;623;47008;-71
2024/04/15 12:45:38;;;;;;;;;13.33;12.33;;;;;29.23;35.46;100836.34;146598;569;47031;-73
2024/04/15 12:48:40;;;;;;;;;9.50;9.25;;;;;30.21;33.41;100996.09;146594;725;47008;-72
2024/04/15 12:51:41;;;;;;;;;11.00;11.00;;;;;30.25;33.24;100984.38;146597;677;47012;-70
2024/04/15 12:54:47;;;;;;;;;12.50;11.50;;;;;29.29;31.93;100792.59;146597;635;47008;-70
2024/04/15 12:57:48;;;;;;;;;10.00;8.67;;;;;30.37;27.46;100970.69;146598;581;47016;-70
2024/04/15 13:01:05;;;;;;;;;10.00;9.67;;;;;30.31;28.04;100963.72;146599;570;47020;-72
2024/04/15 13:04:06;;;;;;;;;13.67;10.00;;;;;30.12;29.77;100951.69;146595;569;46016;-70
2024/04/15 13:07:02;;;;;;;;;12.25;10.75;;;;;30.06;31.08;100955.44;146601;573;46020;-71
2024/04/15 13:10:16;;;;;;;;;;;;;;;;;;;;;
2024/04/15 13:13:16;;;;;;;;;9.00;9.00;;;;;30.03;27.10;100931.47;146600;707;46020;-71
2024/04/15 13:16:17;;;;;;;;;10.67;10.67;;;;;29.99;27.92;100928.87;146597;723;48010;-70
2024/04/15 13:19:27;;;;;;;;;10.33;8.33;;;;;29.92;27.89;100923.69;146599;593;47009;-69
2024/04/15 13:22:30;;;;;;;;;8.00;8.00;;;;;29.83;27.57;100923.06;146595;602;47013;-74
2024/04/15 13:26:02;;;;;;;;;9.00;8.33;;;;;29.82;29.71;100915.97;146599;565;46020;-70
2024/04/15 13:29:21;;;;;;;;;9.00;9.00;;;;;29.81;27.10;100914.19;146600;641;46016;-72
2024/04/15 13:32:23;;;;;;;;;11.67;9.67;;;;;29.75;27.61;100901.87;146600;648;46021;-73
2024/04/15 13:35:28;;;;;;;;;7.33;7.33;;;;;29.74;27.31;100901.91;146595;575;48010;-71
2024/04/15 13:38:32;;;;;;;;;10.25;8.75;;;;;29.73;26.15;100903.72;146599;673;47008;-72
2024/04/15 13:41:27;;;;;;;;;10.75;9.50;;;;;29.83;28.86;100907.03;146598;676;47010;-72
2024/04/15 13:44:25;;;;;;;;;8.00;8.00;;;;;29.90;30.65;100901.47;146599;563;47008;-71
2024/04/15 13:47:22;;;;;;;;;12.50;11.50;;;;;29.97;33.93;100899.53;146592;595;47010;-71
2024/04/15 13:50:24;;;;;;;;;12.25;12.25;;;;;30.02;34.29;100897.59;146601;707;46020;-69
2024/04/15 13:53:35;;;;;;;;;12.00;12.00;;;;;28.79;37.19;100712.78;146594;565;47026;-74
2024/04/15 13:56:40;;;;;;;;;13.33;13.33;;;;;29.62;37.39;100895.06;146597;596;47020;-73
2024/04/15 13:59:48;;;;;;;;;18.00;16.50;;;;;29.19;36.79;100888.03;146596;649;46025;-71
2024/04/15 14:03:00;;;;;;;;;11.67;11.67;;;;;28.92;37.33;100878.84;146599;607;46020;-72
2024/04/15 14:05:57;;;;;;;;;13.00;12.67;;;;;28.73;38.02;100873.03;146597;582;47913;-72
2024/04/15 14:08:57;;;;;;;;;15.75;13.50;;;;;28.63;37.37;100877.69;146597;643;47008;-74
2024/04/15 14:11:49;;;;;;;;;11.67;9.00;;;;;28.49;37.04;100858.41;146595;574;47012;-70
2024/04/15 14:14:53;;;;;;;;;10.75;9.50;;;;;28.39;36.86;100876.38;146599;645;46020;-70
2024/04/15 14:17:49;;;;;;;;;12.00;12.00;;;;;28.29;37.96;100880.13;146594;715;47016;-70
2024/04/15 14:21:10;;;;;;;;;14.75;11.50;;;;;27.18;37.90;100687.66;146597;570;47020;-71
2024/04/15 14:24:02;;;;;;;;;14.00;12.75;;;;;28.16;38.50;100871.47;146595;673;47010;-68
2024/04/15 14:26:58;;;;;;;;;10.50;10.00;;;;;28.05;38.14;100868.13;146599;580;46008;-69